createdAt,value
2018-07-13T00:00:31.058Z,0
2018-07-13T00:01:39.702Z,0
2018-07-13T00:02:48.353Z,0
2018-07-13T00:03:56.991Z,0
2018-07-13T00:05:05.643Z,0
2018-07-13T00:06:14.283Z,0
2018-07-13T00:07:22.928Z,0
2018-07-13T00:08:31.564Z,0
2018-07-13T00:09:40.219Z,0
2018-07-13T00:10:49.125Z,0
2018-07-13T00:11:58.035Z,0
2018-07-13T00:13:06.670Z,0
2018-07-13T00:14:15.319Z,0
2018-07-13T00:15:24.230Z,0
2018-07-13T00:16:33.140Z,0
2018-07-13T00:17:41.789Z,0
2018-07-13T00:18:50.426Z,0
2018-07-13T00:19:59.078Z,0
2018-07-13T00:21:07.719Z,0
2018-07-13T00:22:16.376Z,0
2018-07-13T00:23:25.014Z,0
2018-07-13T00:24:33.663Z,0
2018-07-13T00:25:42.302Z,0
2018-07-13T00:26:50.962Z,0
2018-07-13T00:27:59.597Z,0
2018-07-13T00:29:08.246Z,0
2018-07-13T00:30:16.889Z,0
2018-07-13T00:31:25.804Z,0
2018-07-13T00:32:34.452Z,0
2018-07-13T00:33:43.091Z,0
2018-07-13T00:34:51.732Z,0
2018-07-13T00:36:00.375Z,0
2018-07-13T00:37:09.029Z,0
2018-07-13T00:38:17.681Z,0
2018-07-13T00:39:26.595Z,0
2018-07-13T00:40:35.576Z,0
2018-07-13T00:41:44.504Z,0
2018-07-13T00:42:53.154Z,0
2018-07-13T00:44:02.332Z,0
2018-07-13T00:45:10.970Z,0
2018-07-13T00:46:19.618Z,0
2018-07-13T00:47:28.262Z,0
2018-07-13T00:48:36.911Z,0
2018-07-13T00:49:45.552Z,0
2018-07-13T00:50:54.202Z,0
2018-07-13T00:52:02.846Z,0
2018-07-13T00:53:11.497Z,0
2018-07-13T00:54:20.144Z,0
2018-07-13T00:55:28.791Z,0
2018-07-13T00:56:38.041Z,0
2018-07-13T00:57:46.617Z,0
2018-07-13T00:58:55.270Z,0
2018-07-13T01:00:03.911Z,0
2018-07-13T01:01:12.556Z,0
2018-07-13T01:02:21.204Z,0
2018-07-13T01:03:29.860Z,0
2018-07-13T01:04:38.500Z,0
2018-07-13T01:05:47.148Z,0
2018-07-13T01:06:55.791Z,0
2018-07-13T01:08:04.442Z,0
2018-07-13T01:09:13.084Z,0
2018-07-13T01:10:21.730Z,0
2018-07-13T01:11:30.372Z,0
2018-07-13T01:12:39.015Z,0
2018-07-13T01:13:47.665Z,0
2018-07-13T01:14:56.312Z,0
2018-07-13T01:16:04.955Z,0
2018-07-13T01:17:13.600Z,0
2018-07-13T01:18:22.506Z,0
2018-07-13T01:19:31.169Z,0
2018-07-13T01:20:39.799Z,0
2018-07-13T01:21:48.439Z,0
2018-07-13T01:22:57.090Z,0
2018-07-13T01:24:05.732Z,0
2018-07-13T01:25:14.379Z,0
2018-07-13T01:26:23.028Z,0
2018-07-13T01:27:31.671Z,0
2018-07-13T01:28:40.315Z,0
2018-07-13T01:29:48.969Z,0
2018-07-13T01:30:57.614Z,0
2018-07-13T01:32:06.255Z,0
2018-07-13T01:33:14.906Z,0
2018-07-13T01:34:23.815Z,0
2018-07-13T01:35:32.466Z,0
2018-07-13T01:36:41.115Z,0
2018-07-13T01:37:49.758Z,0
2018-07-13T01:38:58.403Z,0
2018-07-13T01:40:07.053Z,0
2018-07-13T01:41:15.748Z,0
2018-07-13T01:42:24.341Z,0
2018-07-13T01:43:32.985Z,0
2018-07-13T01:44:41.627Z,0
2018-07-13T01:45:50.275Z,0
2018-07-13T01:46:58.920Z,0
2018-07-13T01:48:07.569Z,0
2018-07-13T01:49:16.213Z,0
2018-07-13T01:50:24.855Z,0
2018-07-13T01:51:33.501Z,0
2018-07-13T01:52:42.146Z,0
2018-07-13T01:53:50.799Z,0
2018-07-13T01:54:59.439Z,0
2018-07-13T01:56:08.090Z,0
2018-07-13T01:57:16.735Z,0
2018-07-13T01:58:25.384Z,0
2018-07-13T01:59:34.026Z,0
2018-07-13T02:00:42.674Z,0
2018-07-13T02:01:51.317Z,0
2018-07-13T02:03:00.261Z,0
2018-07-13T02:04:08.911Z,0
2018-07-13T02:05:17.553Z,0
2018-07-13T02:06:26.745Z,0
2018-07-13T02:07:35.652Z,0
2018-07-13T02:08:44.569Z,0
2018-07-13T02:09:53.478Z,0
2018-07-13T02:11:02.117Z,0
2018-07-13T02:12:10.764Z,0
2018-07-13T02:13:19.415Z,0
2018-07-13T02:14:28.060Z,0
2018-07-13T02:15:36.702Z,0
2018-07-13T02:16:45.340Z,0
2018-07-13T02:17:54.577Z,0
2018-07-13T02:19:03.219Z,0
2018-07-13T02:20:11.866Z,0
2018-07-13T02:21:21.036Z,0
2018-07-13T02:22:29.689Z,0
2018-07-13T02:23:38.335Z,0
2018-07-13T02:24:46.979Z,0
2018-07-13T02:25:55.624Z,0
2018-07-13T02:27:04.265Z,0
2018-07-13T02:28:13.171Z,0
2018-07-13T02:29:21.822Z,0
2018-07-13T02:30:30.736Z,0
2018-07-13T02:31:39.639Z,0
2018-07-13T02:32:48.289Z,0
2018-07-13T02:33:57.080Z,0
2018-07-13T02:35:06.155Z,0
2018-07-13T02:36:15.076Z,0
2018-07-13T02:37:24.263Z,0
2018-07-13T02:38:32.908Z,0
2018-07-13T02:39:41.826Z,0
2018-07-13T02:40:50.470Z,0
2018-07-13T02:41:59.123Z,0
2018-07-13T02:43:08.044Z,0
2018-07-13T02:44:17.477Z,0
2018-07-13T02:45:26.393Z,0
2018-07-13T02:46:35.038Z,4
2018-07-13T02:47:43.685Z,4
2018-07-13T02:48:52.326Z,0
2018-07-13T02:50:00.987Z,4
2018-07-13T02:51:09.891Z,4
2018-07-13T02:52:18.542Z,4
2018-07-13T02:53:27.445Z,4
2018-07-13T02:54:36.101Z,8
2018-07-13T02:55:45.547Z,4
2018-07-13T02:56:54.720Z,8
2018-07-13T02:58:03.632Z,8
2018-07-13T02:59:12.285Z,8
2018-07-13T03:00:21.245Z,12
2018-07-13T03:01:30.334Z,12
2018-07-13T03:02:39.245Z,12
2018-07-13T03:03:47.885Z,16
2018-07-13T03:04:56.533Z,20
2018-07-13T03:06:05.171Z,24
2018-07-13T03:07:13.834Z,24
2018-07-13T03:08:22.734Z,28
2018-07-13T03:09:31.390Z,32
2018-07-13T03:10:40.030Z,36
2018-07-13T03:11:48.685Z,40
2018-07-13T03:12:57.325Z,40
2018-07-13T03:14:06.238Z,44
2018-07-13T03:15:14.886Z,52
2018-07-13T03:16:23.818Z,60
2018-07-13T03:17:32.729Z,64
2018-07-13T03:18:41.371Z,72
2018-07-13T03:19:50.021Z,80
2018-07-13T03:20:59.199Z,88
2018-07-13T03:22:08.502Z,96
2018-07-13T03:23:17.755Z,108
2018-07-13T03:24:26.671Z,116
2018-07-13T03:25:35.308Z,120
2018-07-13T03:26:44.232Z,132
2018-07-13T03:27:52.876Z,144
2018-07-13T03:29:01.525Z,152
2018-07-13T03:30:10.430Z,164
2018-07-13T03:31:19.614Z,176
2018-07-13T03:32:28.265Z,188
2018-07-13T03:33:37.434Z,200
2018-07-13T03:34:46.075Z,212
2018-07-13T03:35:54.730Z,224
2018-07-13T03:37:03.641Z,232
2018-07-13T03:38:12.288Z,248
2018-07-13T03:39:20.937Z,256
2018-07-13T03:40:29.573Z,280
2018-07-13T03:41:38.476Z,300
2018-07-13T03:42:47.385Z,324
2018-07-13T03:43:56.069Z,344
2018-07-13T03:45:04.945Z,376
2018-07-13T03:46:13.594Z,396
2018-07-13T03:47:22.500Z,420
2018-07-13T03:48:31.150Z,436
2018-07-13T03:49:39.794Z,460
2018-07-13T03:50:48.444Z,488
2018-07-13T03:51:57.090Z,520
2018-07-13T03:53:05.733Z,568
2018-07-13T03:54:14.487Z,576
2018-07-13T03:55:23.019Z,608
2018-07-13T03:56:31.666Z,648
2018-07-13T03:57:40.308Z,676
2018-07-13T03:58:48.957Z,712
2018-07-13T03:59:57.599Z,776
2018-07-13T04:01:06.510Z,808
2018-07-13T04:02:15.157Z,796
2018-07-13T04:03:23.806Z,756
2018-07-13T04:04:32.451Z,740
2018-07-13T04:05:41.098Z,776
2018-07-13T04:06:49.737Z,812
2018-07-13T04:07:58.386Z,852
2018-07-13T04:09:07.286Z,884
2018-07-13T04:10:15.934Z,940
2018-07-13T04:11:24.577Z,992
2018-07-13T04:12:33.225Z,984
2018-07-13T04:13:42.145Z,1008
2018-07-13T04:14:50.792Z,1016
2018-07-13T04:15:59.440Z,1012
2018-07-13T04:17:08.081Z,1000
2018-07-13T04:18:16.989Z,932
2018-07-13T04:19:25.643Z,884
2018-07-13T04:20:34.283Z,796
2018-07-13T04:21:42.923Z,736
2018-07-13T04:22:51.574Z,728
2018-07-13T04:24:00.478Z,760
2018-07-13T04:25:09.129Z,804
2018-07-13T04:26:17.769Z,844
2018-07-13T04:27:26.417Z,856
2018-07-13T04:28:35.062Z,860
2018-07-13T04:29:43.711Z,840
2018-07-13T04:30:52.357Z,828
2018-07-13T04:32:01.268Z,896
2018-07-13T04:33:09.910Z,992
2018-07-13T04:34:18.657Z,1028
2018-07-13T04:35:27.207Z,1100
2018-07-13T04:36:35.850Z,1128
2018-07-13T04:37:44.493Z,1140
2018-07-13T04:38:53.135Z,1160
2018-07-13T04:40:01.785Z,1248
2018-07-13T04:41:10.497Z,1312
2018-07-13T04:42:19.075Z,1312
2018-07-13T04:43:27.713Z,1348
2018-07-13T04:44:36.366Z,1388
2018-07-13T04:45:45.009Z,1440
2018-07-13T04:46:53.919Z,1464
2018-07-13T04:48:02.840Z,1404
2018-07-13T04:49:11.466Z,1360
2018-07-13T04:50:20.201Z,1384
2018-07-13T04:51:28.761Z,1432
2018-07-13T04:52:37.408Z,1536
2018-07-13T04:53:46.568Z,1584
2018-07-13T04:54:55.216Z,1564
2018-07-13T04:56:03.860Z,1416
2018-07-13T04:57:12.513Z,1444
2018-07-13T04:58:21.148Z,1396
2018-07-13T04:59:29.798Z,1312
2018-07-13T05:00:38.835Z,1432
2018-07-13T05:01:47.458Z,1460
2018-07-13T05:02:56.037Z,1444
2018-07-13T05:04:04.684Z,1468
2018-07-13T05:05:13.326Z,1508
2018-07-13T05:06:22.295Z,1528
2018-07-13T05:07:30.903Z,1372
2018-07-13T05:08:39.544Z,1380
2018-07-13T05:09:48.186Z,1440
2018-07-13T05:10:56.829Z,1512
2018-07-13T05:12:05.487Z,1508
2018-07-13T05:13:14.130Z,1732
2018-07-13T05:14:23.050Z,1344
2018-07-13T05:15:31.687Z,1484
2018-07-13T05:16:40.340Z,1676
2018-07-13T05:17:48.981Z,1552
2018-07-13T05:18:57.629Z,1480
2018-07-13T05:20:06.264Z,1656
2018-07-13T05:21:14.979Z,1744
2018-07-13T05:22:23.562Z,1760
2018-07-13T05:23:32.737Z,2068
2018-07-13T05:24:41.635Z,2256
2018-07-13T05:25:50.551Z,2100
2018-07-13T05:26:59.206Z,1980
2018-07-13T05:28:07.849Z,2224
2018-07-13T05:29:16.493Z,2368
2018-07-13T05:30:25.142Z,2268
2018-07-13T05:31:34.330Z,1924
2018-07-13T05:32:42.963Z,1804
2018-07-13T05:33:51.617Z,1512
2018-07-13T05:35:00.529Z,1276
2018-07-13T05:36:09.179Z,1424
2018-07-13T05:37:17.821Z,1464
2018-07-13T05:38:26.614Z,1624
2018-07-13T05:39:35.123Z,1572
2018-07-13T05:40:43.768Z,2016
2018-07-13T05:41:52.417Z,1864
2018-07-13T05:43:01.322Z,1464
2018-07-13T05:44:09.971Z,1384
2018-07-13T05:45:18.619Z,1660
2018-07-13T05:46:27.268Z,1580
2018-07-13T05:47:35.919Z,1776
2018-07-13T05:48:44.552Z,2048
2018-07-13T05:49:53.205Z,2016
2018-07-13T05:51:02.111Z,2232
2018-07-13T05:52:10.768Z,1968
2018-07-13T05:53:19.670Z,1988
2018-07-13T05:54:28.324Z,2064
2018-07-13T05:55:36.968Z,1996
2018-07-13T05:56:45.620Z,1852
2018-07-13T05:57:54.257Z,1776
2018-07-13T05:59:03.166Z,1996
2018-07-13T06:00:11.812Z,1964
2018-07-13T06:01:20.467Z,1900
2018-07-13T06:02:29.112Z,1916
2018-07-13T06:03:37.761Z,1780
2018-07-13T06:04:46.402Z,2024
2018-07-13T06:05:55.048Z,2468
2018-07-13T06:07:03.703Z,2544
2018-07-13T06:08:12.349Z,2884
2018-07-13T06:09:21.002Z,2464
2018-07-13T06:10:29.640Z,2292
2018-07-13T06:11:38.297Z,2188
2018-07-13T06:12:46.938Z,2060
2018-07-13T06:13:55.588Z,2144
2018-07-13T06:15:04.623Z,2388
2018-07-13T06:16:13.194Z,2256
2018-07-13T06:17:21.835Z,2556
2018-07-13T06:18:30.484Z,2548
2018-07-13T06:19:39.122Z,2420
2018-07-13T06:20:47.770Z,2468
2018-07-13T06:21:56.421Z,2764
2018-07-13T06:23:05.071Z,2704
2018-07-13T06:24:14.171Z,2576
2018-07-13T06:25:22.668Z,2504
2018-07-13T06:26:31.316Z,2276
2018-07-13T06:27:40.220Z,2360
2018-07-13T06:28:49.153Z,2728
2018-07-13T06:29:57.788Z,2872
2018-07-13T06:31:06.708Z,2780
2018-07-13T06:32:15.348Z,2632
2018-07-13T06:33:24.004Z,2468
2018-07-13T06:34:32.641Z,2564
2018-07-13T06:35:41.561Z,2652
2018-07-13T06:36:50.474Z,2648
2018-07-13T06:37:59.125Z,2704
2018-07-13T06:39:07.770Z,2608
2018-07-13T06:40:16.417Z,2656
2018-07-13T06:41:25.057Z,2676
2018-07-13T06:42:33.704Z,2804
2018-07-13T06:43:42.354Z,2744
2018-07-13T06:44:51.338Z,2788
2018-07-13T06:46:00.312Z,2896
2018-07-13T06:47:09.221Z,2808
2018-07-13T06:48:18.142Z,2940
2018-07-13T06:49:26.790Z,2868
2018-07-13T06:50:35.531Z,2900
2018-07-13T06:51:44.078Z,2892
2018-07-13T06:52:52.729Z,2820
2018-07-13T06:54:01.381Z,2660
2018-07-13T06:55:10.293Z,2488
2018-07-13T06:56:18.934Z,2568
2018-07-13T06:57:27.583Z,2760
2018-07-13T06:58:36.234Z,2580
2018-07-13T06:59:45.142Z,2708
2018-07-13T07:00:53.790Z,2796
2018-07-13T07:02:02.436Z,2996
2018-07-13T07:03:11.079Z,2836
2018-07-13T07:04:19.726Z,2692
2018-07-13T07:05:28.376Z,2820
2018-07-13T07:06:37.017Z,2664
2018-07-13T07:07:45.665Z,2988
2018-07-13T07:08:54.314Z,4152
2018-07-13T07:10:02.969Z,4712
2018-07-13T07:11:11.878Z,4256
2018-07-13T07:12:20.528Z,4300
2018-07-13T07:13:29.177Z,4704
2018-07-13T07:14:37.830Z,4724
2018-07-13T07:15:46.476Z,4692
2018-07-13T07:16:55.123Z,4344
2018-07-13T07:18:04.040Z,3972
2018-07-13T07:19:12.684Z,3736
2018-07-13T07:20:21.337Z,3584
2018-07-13T07:21:29.985Z,4168
2018-07-13T07:22:38.898Z,4488
2018-07-13T07:23:47.539Z,4824
2018-07-13T07:24:56.189Z,5272
2018-07-13T07:26:04.841Z,5100
2018-07-13T07:27:13.486Z,5152
2018-07-13T07:28:22.392Z,5120
2018-07-13T07:29:31.604Z,4772
2018-07-13T07:30:40.610Z,4740
2018-07-13T07:31:49.491Z,4876
2018-07-13T07:32:58.656Z,4992
2018-07-13T07:34:07.305Z,5272
2018-07-13T07:35:15.951Z,5452
2018-07-13T07:36:24.606Z,5952
2018-07-13T07:37:33.254Z,6772
2018-07-13T07:38:42.287Z,6872
2018-07-13T07:39:50.940Z,6472
2018-07-13T07:40:59.589Z,5888
2018-07-13T07:42:08.503Z,5916
2018-07-13T07:43:17.147Z,5728
2018-07-13T07:44:25.793Z,5492
2018-07-13T07:45:34.444Z,5076
2018-07-13T07:46:43.094Z,5124
2018-07-13T07:47:51.737Z,5844
2018-07-13T07:49:00.389Z,6204
2018-07-13T07:50:09.450Z,6144
2018-07-13T07:51:21.443Z,5964
2018-07-13T07:52:31.167Z,4928
2018-07-13T07:53:39.822Z,4504
2018-07-13T07:54:48.731Z,4344
2018-07-13T07:55:57.378Z,4328
2018-07-13T07:57:06.408Z,3840
2018-07-13T07:58:15.061Z,3540
2018-07-13T07:59:23.710Z,3708
2018-07-13T08:00:32.353Z,3188
2018-07-13T08:01:41.017Z,3828
2018-07-13T08:02:49.683Z,4080
2018-07-13T08:03:58.613Z,4324
2018-07-13T08:05:07.524Z,4568
2018-07-13T08:06:16.295Z,5136
2018-07-13T08:07:24.856Z,5064
2018-07-13T08:08:33.845Z,5004
2018-07-13T08:09:42.488Z,5600
2018-07-13T08:10:51.137Z,5816
2018-07-13T08:11:59.791Z,5872
2018-07-13T08:13:08.704Z,5020
2018-07-13T08:14:17.524Z,4392
2018-07-13T08:15:25.996Z,3584
2018-07-13T08:16:34.908Z,3608
2018-07-13T08:17:43.557Z,3948
2018-07-13T08:18:52.207Z,3784
2018-07-13T08:20:00.851Z,3580
2018-07-13T08:21:09.495Z,3576
2018-07-13T08:22:18.402Z,4036
2018-07-13T08:23:27.055Z,4880
2018-07-13T08:24:35.698Z,4968
2018-07-13T08:25:44.347Z,4828
2018-07-13T08:26:52.993Z,4564
2018-07-13T08:28:01.645Z,4292
2018-07-13T08:29:10.290Z,3996
2018-07-13T08:30:18.936Z,3636
2018-07-13T08:31:27.583Z,3388
2018-07-13T08:32:36.227Z,3268
2018-07-13T08:33:44.881Z,3140
2018-07-13T08:34:53.790Z,3056
2018-07-13T08:36:02.711Z,3048
2018-07-13T08:37:11.358Z,3044
2018-07-13T08:38:20.010Z,3052
2018-07-13T08:39:28.654Z,3032
2018-07-13T08:40:37.307Z,2996
2018-07-13T08:41:46.211Z,3024
2018-07-13T08:42:55.133Z,3084
2018-07-13T08:44:03.795Z,3140
2018-07-13T08:45:12.437Z,3136
2018-07-13T08:46:21.071Z,3072
2018-07-13T08:47:29.726Z,2984
2018-07-13T08:48:38.381Z,2948
2018-07-13T08:49:47.030Z,2936
2018-07-13T08:50:55.679Z,2900
2018-07-13T08:52:04.319Z,2876
2018-07-13T08:53:12.983Z,2880
2018-07-13T08:54:21.892Z,2904
2018-07-13T08:55:30.550Z,2892
2018-07-13T08:56:39.187Z,2976
2018-07-13T08:57:47.839Z,3016
2018-07-13T08:58:56.747Z,2996
2018-07-13T09:00:05.404Z,2996
2018-07-13T09:01:14.044Z,2984
2018-07-13T09:02:22.695Z,2916
2018-07-13T09:03:31.343Z,2884
2018-07-13T09:04:40.378Z,2856
2018-07-13T09:05:49.096Z,2876
2018-07-13T09:06:57.671Z,2868
2018-07-13T09:08:06.319Z,2844
2018-07-13T09:09:14.967Z,2912
2018-07-13T09:10:23.887Z,2916
2018-07-13T09:11:32.531Z,2928
2018-07-13T09:12:41.185Z,2944
2018-07-13T09:13:49.824Z,2952
2018-07-13T09:14:58.481Z,2936
2018-07-13T09:16:07.129Z,2904
2018-07-13T09:17:16.056Z,2880
2018-07-13T09:18:24.745Z,2872
2018-07-13T09:19:33.616Z,2884
2018-07-13T09:20:42.530Z,2872
2018-07-13T09:21:51.453Z,2892
2018-07-13T09:23:00.099Z,2920
2018-07-13T09:24:08.789Z,2924
2018-07-13T09:25:17.406Z,2904
2018-07-13T09:26:26.383Z,2884
2018-07-13T09:27:35.242Z,2872
2018-07-13T09:28:43.882Z,2876
2018-07-13T09:29:52.534Z,2876
2018-07-13T09:31:01.185Z,2884
2018-07-13T09:32:09.842Z,2904
2018-07-13T09:33:18.487Z,2896
2018-07-13T09:34:27.153Z,2912
2018-07-13T09:35:36.071Z,2932
2018-07-13T09:36:44.711Z,2932
2018-07-13T09:37:53.435Z,2936
2018-07-13T09:39:02.019Z,2920
2018-07-13T09:40:10.668Z,2920
2018-07-13T09:41:19.315Z,2928
2018-07-13T09:42:27.963Z,2940
2018-07-13T09:43:36.623Z,2956
2018-07-13T09:44:45.271Z,2940
2018-07-13T09:45:53.921Z,2928
2018-07-13T09:47:02.801Z,2920
2018-07-13T09:48:11.219Z,2904
2018-07-13T09:49:19.864Z,2896
2018-07-13T09:50:28.791Z,2892
2018-07-13T09:51:37.771Z,2888
2018-07-13T09:52:46.688Z,2904
2018-07-13T09:53:56.070Z,2904
2018-07-13T09:55:04.559Z,2916
2018-07-13T09:56:13.200Z,2924
2018-07-13T09:57:21.851Z,2932
2018-07-13T09:58:30.496Z,2944
2018-07-13T09:59:39.155Z,2956
2018-07-13T10:00:48.025Z,2932
2018-07-13T10:01:56.448Z,2932
2018-07-13T10:03:05.096Z,2936
2018-07-13T10:04:13.741Z,2960
2018-07-13T10:05:22.400Z,2984
2018-07-13T10:06:31.044Z,2984
2018-07-13T10:07:39.697Z,2976
2018-07-13T10:08:48.338Z,2976
2018-07-13T10:09:56.997Z,2972
2018-07-13T10:11:05.904Z,2980
2018-07-13T10:12:14.564Z,2984
2018-07-13T10:13:23.507Z,2976
2018-07-13T10:14:32.397Z,2968
2018-07-13T10:15:41.047Z,2972
2018-07-13T10:16:49.697Z,2984
2018-07-13T10:17:58.344Z,3012
2018-07-13T10:19:07.261Z,3020
2018-07-13T10:20:16.181Z,3028
2018-07-13T10:21:24.835Z,3032
2018-07-13T10:22:33.756Z,3028
2018-07-13T10:23:42.662Z,3032
2018-07-13T10:24:51.313Z,3048
2018-07-13T10:25:59.958Z,3068
2018-07-13T10:27:08.613Z,3068
2018-07-13T10:28:17.258Z,3104
2018-07-13T10:29:25.914Z,3108
2018-07-13T10:30:34.558Z,3128
2018-07-13T10:31:43.215Z,3132
2018-07-13T10:32:51.862Z,3140
2018-07-13T10:34:00.518Z,3140
2018-07-13T10:35:09.163Z,3148
2018-07-13T10:36:17.819Z,3148
2018-07-13T10:37:26.467Z,3180
2018-07-13T10:38:35.116Z,3204
2018-07-13T10:39:43.766Z,3192
2018-07-13T10:40:52.415Z,3172
2018-07-13T10:42:01.077Z,3160
2018-07-13T10:43:09.987Z,3156
2018-07-13T10:44:18.635Z,3148
2018-07-13T10:45:27.543Z,3152
2018-07-13T10:46:36.196Z,3176
2018-07-13T10:47:44.924Z,3192
2018-07-13T10:48:53.505Z,3196
2018-07-13T10:50:02.161Z,3196
2018-07-13T10:51:10.818Z,3168
2018-07-13T10:52:19.465Z,3192
2018-07-13T10:53:28.118Z,3212
2018-07-13T10:54:36.763Z,3208
2018-07-13T10:55:45.422Z,3208
2018-07-13T10:56:54.395Z,3200
2018-07-13T10:58:03.256Z,3204
2018-07-13T10:59:11.911Z,3224
2018-07-13T11:00:20.560Z,3220
2018-07-13T11:01:29.212Z,3228
2018-07-13T11:02:37.863Z,3260
2018-07-13T11:03:46.518Z,3244
2018-07-13T11:04:55.163Z,3240
2018-07-13T11:06:03.840Z,3232
2018-07-13T11:07:12.761Z,3228
2018-07-13T11:08:21.425Z,3204
2018-07-13T11:09:30.073Z,3200
2018-07-13T11:10:39.046Z,3244
2018-07-13T11:11:48.133Z,3244
2018-07-13T11:12:56.792Z,3252
2018-07-13T11:14:05.487Z,3272
2018-07-13T11:15:14.100Z,3264
2018-07-13T11:16:22.749Z,3252
2018-07-13T11:17:31.397Z,3260
2018-07-13T11:18:40.053Z,3260
2018-07-13T11:19:48.737Z,3268
2018-07-13T11:20:57.396Z,3280
2018-07-13T11:22:06.039Z,3244
2018-07-13T11:23:14.694Z,3224
2018-07-13T11:24:23.444Z,3228
2018-07-13T11:25:32.421Z,3216
2018-07-13T11:26:41.071Z,3220
2018-07-13T11:27:49.729Z,3248
2018-07-13T11:28:58.381Z,3276
2018-07-13T11:30:07.033Z,3296
2018-07-13T11:31:15.676Z,3288
2018-07-13T11:32:24.329Z,3268
2018-07-13T11:33:32.985Z,3260
2018-07-13T11:34:41.902Z,3272
2018-07-13T11:35:50.829Z,3260
2018-07-13T11:36:59.587Z,3252
2018-07-13T11:38:08.126Z,3292
2018-07-13T11:39:16.773Z,3296
2018-07-13T11:40:25.434Z,3296
2018-07-13T11:41:34.343Z,3292
2018-07-13T11:42:43.000Z,3304
2018-07-13T11:43:51.646Z,3324
2018-07-13T11:45:00.305Z,3364
2018-07-13T11:46:08.947Z,3304
2018-07-13T11:47:17.604Z,3320
2018-07-13T11:48:26.265Z,3272
2018-07-13T11:49:34.917Z,3268
2018-07-13T11:50:43.566Z,3268
2018-07-13T11:51:52.213Z,3336
2018-07-13T11:53:00.862Z,3300
2018-07-13T11:54:09.782Z,3316
2018-07-13T11:55:18.443Z,3288
2018-07-13T11:56:27.091Z,3292
2018-07-13T11:57:35.750Z,3304
2018-07-13T11:58:44.390Z,3276
2018-07-13T11:59:53.055Z,3280
2018-07-13T12:01:01.972Z,3292
2018-07-13T12:02:10.628Z,3348
2018-07-13T12:03:19.272Z,3328
2018-07-13T12:04:27.936Z,3300
2018-07-13T12:05:36.583Z,3284
2018-07-13T12:06:45.499Z,3264
2018-07-13T12:07:54.148Z,3296
2018-07-13T12:09:02.798Z,3316
2018-07-13T12:10:11.456Z,3320
2018-07-13T12:11:20.110Z,3400
2018-07-13T12:12:28.803Z,3408
2018-07-13T12:13:37.972Z,3404
2018-07-13T12:14:46.631Z,3420
2018-07-13T12:15:55.280Z,3476
2018-07-13T12:17:03.941Z,3456
2018-07-13T12:18:12.586Z,3452
2018-07-13T12:19:21.238Z,3424
2018-07-13T12:20:29.885Z,3384
2018-07-13T12:21:38.549Z,3416
2018-07-13T12:22:47.193Z,3580
2018-07-13T12:23:55.893Z,3676
2018-07-13T12:25:04.810Z,3644
2018-07-13T12:26:13.484Z,3536
2018-07-13T12:27:22.120Z,3492
2018-07-13T12:28:31.026Z,3392
2018-07-13T12:29:39.677Z,3404
2018-07-13T12:30:48.330Z,3396
2018-07-13T12:31:56.992Z,3412
2018-07-13T12:33:06.319Z,3380
2018-07-13T12:34:14.909Z,3436
2018-07-13T12:35:23.565Z,2516
2018-07-13T12:36:32.229Z,2256
2018-07-13T12:37:40.879Z,2264
2018-07-13T12:38:49.794Z,3404
2018-07-13T12:39:58.718Z,3516
2018-07-13T12:41:07.358Z,3520
2018-07-13T12:42:16.007Z,3588
2018-07-13T12:43:24.924Z,3696
2018-07-13T12:44:33.571Z,3656
2018-07-13T12:45:42.468Z,3764
2018-07-13T12:46:51.520Z,3808
2018-07-13T12:48:00.284Z,3808
2018-07-13T12:49:09.056Z,3704
2018-07-13T12:50:18.006Z,2288
2018-07-13T12:51:26.984Z,2028
2018-07-13T12:52:35.905Z,3168
2018-07-13T12:53:44.559Z,2444
2018-07-13T12:54:53.206Z,3696
2018-07-13T12:56:01.894Z,2696
2018-07-13T12:57:10.549Z,2460
2018-07-13T12:58:19.210Z,4028
2018-07-13T12:59:28.610Z,4108
2018-07-13T13:00:37.538Z,3948
2018-07-13T13:01:46.188Z,3836
2018-07-13T13:02:54.845Z,3716
2018-07-13T13:04:03.494Z,3696
2018-07-13T13:05:12.423Z,3780
2018-07-13T13:06:21.086Z,3876
2018-07-13T13:07:29.722Z,4032
2018-07-13T13:08:38.381Z,4168
2018-07-13T13:09:47.034Z,4292
2018-07-13T13:10:55.689Z,4088
2018-07-13T13:12:04.601Z,3920
2018-07-13T13:13:13.257Z,3808
2018-07-13T13:14:21.909Z,3732
2018-07-13T13:15:30.563Z,3524
2018-07-13T13:16:39.210Z,3896
2018-07-13T13:17:47.867Z,3048
2018-07-13T13:18:56.785Z,2740
2018-07-13T13:20:05.439Z,3476
2018-07-13T13:21:14.086Z,4368
2018-07-13T13:22:23.012Z,4188
2018-07-13T13:23:31.674Z,4116
2018-07-13T13:24:40.342Z,4060
2018-07-13T13:25:48.999Z,4116
2018-07-13T13:26:57.992Z,3752
2018-07-13T13:28:06.765Z,4352
2018-07-13T13:29:15.749Z,4612
2018-07-13T13:30:24.393Z,4864
2018-07-13T13:31:33.093Z,4852
2018-07-13T13:32:42.031Z,4828
2018-07-13T13:33:50.682Z,4796
2018-07-13T13:34:59.329Z,4736
2018-07-13T13:36:08.248Z,4764
2018-07-13T13:37:17.163Z,4868
2018-07-13T13:38:25.817Z,4724
2018-07-13T13:39:34.730Z,4472
2018-07-13T13:40:43.385Z,4432
2018-07-13T13:41:52.039Z,4188
2018-07-13T13:43:00.692Z,4048
2018-07-13T13:44:09.348Z,4000
2018-07-13T13:45:18.054Z,3904
2018-07-13T13:46:26.714Z,4148
2018-07-13T13:47:35.366Z,4240
2018-07-13T13:48:44.556Z,4296
2018-07-13T13:49:53.206Z,2484
2018-07-13T13:51:01.862Z,2224
2018-07-13T13:52:10.514Z,2476
2018-07-13T13:53:19.171Z,2448
2018-07-13T13:54:27.819Z,1968
2018-07-13T13:55:36.475Z,1932
2018-07-13T13:56:45.127Z,2008
2018-07-13T13:57:53.783Z,3200
2018-07-13T13:59:02.435Z,2404
2018-07-13T14:00:11.346Z,2588
2018-07-13T14:01:19.997Z,4080
2018-07-13T14:02:28.649Z,2232
2018-07-13T14:03:37.307Z,2164
2018-07-13T14:04:45.962Z,2184
2018-07-13T14:05:54.618Z,1992
2018-07-13T14:07:03.530Z,1928
2018-07-13T14:08:12.190Z,2056
2018-07-13T14:09:20.922Z,3764
2018-07-13T14:10:29.496Z,2484
2018-07-13T14:11:38.141Z,2520
2018-07-13T14:12:46.796Z,3540
2018-07-13T14:13:55.709Z,4200
2018-07-13T14:15:04.367Z,2684
2018-07-13T14:16:13.277Z,4016
2018-07-13T14:17:21.937Z,4008
2018-07-13T14:18:30.588Z,4016
2018-07-13T14:19:39.245Z,3916
2018-07-13T14:20:48.158Z,3792
2018-07-13T14:21:57.068Z,3776
2018-07-13T14:23:05.723Z,3688
2018-07-13T14:24:14.378Z,3804
2018-07-13T14:25:23.034Z,3832
2018-07-13T14:26:31.684Z,2460
2018-07-13T14:27:40.337Z,2696
2018-07-13T14:28:49.243Z,2756
2018-07-13T14:29:58.179Z,2748
2018-07-13T14:31:06.824Z,2856
2018-07-13T14:32:15.476Z,4092
2018-07-13T14:33:24.128Z,3852
2018-07-13T14:34:33.123Z,3468
2018-07-13T14:35:41.721Z,3620
2018-07-13T14:36:50.365Z,2160
2018-07-13T14:37:59.016Z,2176
2018-07-13T14:39:07.667Z,2236
2018-07-13T14:40:16.359Z,2284
2018-07-13T14:41:24.988Z,2356
2018-07-13T14:42:33.646Z,2400
2018-07-13T14:43:42.592Z,2396
2018-07-13T14:44:51.254Z,3300
2018-07-13T14:45:59.906Z,3428
2018-07-13T14:47:08.962Z,4032
2018-07-13T14:48:17.489Z,4088
2018-07-13T14:49:26.144Z,4408
2018-07-13T14:50:34.797Z,4544
2018-07-13T14:51:43.452Z,4632
2018-07-13T14:52:54.727Z,4732
2018-07-13T14:54:06.689Z,4696
2018-07-13T14:55:18.850Z,4512
2018-07-13T14:56:28.607Z,4288
2018-07-13T14:57:37.263Z,3980
2018-07-13T14:58:45.909Z,3688
2018-07-13T14:59:54.567Z,3328
2018-07-13T15:01:03.215Z,3260
2018-07-13T15:02:11.878Z,3140
2018-07-13T15:03:20.518Z,2620
2018-07-13T15:04:29.624Z,1880
2018-07-13T15:05:38.273Z,1752
2018-07-13T15:06:47.164Z,1780
2018-07-13T15:07:55.582Z,1976
2018-07-13T15:09:04.240Z,1908
2018-07-13T15:10:12.954Z,2056
2018-07-13T15:11:21.552Z,3096
2018-07-13T15:12:30.462Z,3096
2018-07-13T15:13:39.112Z,2096
2018-07-13T15:14:47.768Z,2092
2018-07-13T15:15:56.413Z,2108
2018-07-13T15:17:05.074Z,2208
2018-07-13T15:18:13.720Z,2972
2018-07-13T15:19:22.377Z,2184
2018-07-13T15:20:31.018Z,2104
2018-07-13T15:21:40.256Z,2036
2018-07-13T15:22:48.900Z,2016
2018-07-13T15:23:57.558Z,2036
2018-07-13T15:25:06.739Z,2684
2018-07-13T15:26:15.386Z,2156
2018-07-13T15:27:24.039Z,3052
2018-07-13T15:28:32.688Z,3092
2018-07-13T15:29:41.347Z,3052
2018-07-13T15:30:49.995Z,3004
2018-07-13T15:31:58.646Z,2000
2018-07-13T15:33:07.296Z,1924
2018-07-13T15:34:15.950Z,2004
2018-07-13T15:35:24.606Z,2020
2018-07-13T15:36:33.519Z,2128